Time;durP1;ratioP1;P1;durP2;ratioP2;P2;SDS_P1;SDS_P2;PMS_P1;PMS_P2;Temp;Humidity;BMP_temperature;BMP_pressure;BME280_temperature;BME280_humidity;BME280_pressure;Samples;Min_cycle;Max_cycle;Signal;HPM_P1;HPM_P2
2023/10/27 00:00:36;;;;;;;14.97;14.07;;;10.50;99.90;;;;;;4857991;29;20209;-40
2023/10/27 00:03:01;;;;;;;15.50;14.60;;;10.40;99.90;;;;;;4855982;29;20444;-39
2023/10/27 00:05:27;;;;;;;15.77;14.83;;;10.40;99.90;;;;;;4856090;29;20471;-46
2023/10/27 00:07:53;;;;;;;14.87;13.87;;;10.40;99.90;;;;;;4853953;29;20197;-41
2023/10/27 00:10:18;;;;;;;14.40;13.40;;;10.30;99.90;;;;;;4841673;29;20271;-42
2023/10/27 00:12:44;;;;;;;14.30;13.40;;;10.30;99.90;;;;;;4857613;29;20797;-39
2023/10/27 00:15:10;;;;;;;14.53;13.53;;;10.30;99.90;;;;;;4858415;29;20562;-40
2023/10/27 00:17:36;;;;;;;13.80;13.00;;;10.30;99.90;;;;;;4853746;29;20282;-44
2023/10/27 00:20:05;;;;;;;14.43;13.43;;;10.40;99.90;;;;;;4848985;29;20197;-41
2023/10/27 00:22:33;;;;;;;13.87;13.07;;;10.40;99.90;;;;;;4858716;29;20667;-48
2023/10/27 00:24:59;;;;;;;14.30;13.40;;;10.50;99.90;;;;;;4860164;29;20508;-40
2023/10/27 00:27:24;;;;;;;14.20;13.17;;;10.50;99.90;;;;;;4856655;29;20428;-39
2023/10/27 00:29:50;;;;;;;14.10;13.20;;;10.60;99.90;;;;;;4854532;29;20442;-41
2023/10/27 00:32:16;;;;;;;14.53;13.53;;;10.60;99.90;;;;;;4857471;29;20188;-41
2023/10/27 00:34:41;;;;;;;13.97;13.17;;;10.60;99.90;;;;;;4852813;29;20303;-42
2023/10/27 00:37:07;;;;;;;14.37;13.53;;;10.60;99.90;;;;;;4864092;29;20234;-40
2023/10/27 00:39:33;;;;;;;13.57;12.80;;;10.60;99.90;;;;;;4849334;29;20202;-40
2023/10/27 00:41:58;;;;;;;14.10;13.30;;;10.60;99.90;;;;;;4856819;29;20192;-39
2023/10/27 00:44:24;;;;;;;13.90;13.10;;;10.70;99.90;;;;;;4861609;29;20211;-41
2023/10/27 00:46:50;;;;;;;14.70;13.80;;;10.70;99.90;;;;;;4866405;29;20192;-40
2023/10/27 00:49:16;;;;;;;13.97;13.17;;;10.80;99.90;;;;;;4848096;29;20193;-41
2023/10/27 00:51:46;;;;;;;14.03;13.20;;;10.80;99.90;;;;;;4853211;29;20564;-39
2023/10/27 00:54:12;;;;;;;13.87;13.07;;;10.80;99.90;;;;;;4853376;29;20952;-40
2023/10/27 00:56:39;;;;;;;13.73;12.93;;;10.80;99.90;;;;;;4864750;29;20436;-41
2023/10/27 00:59:05;;;;;;;13.30;12.47;;;10.80;99.90;;;;;;4860083;29;20448;-41
2023/10/27 01:01:32;;;;;;;13.90;13.10;;;10.80;99.90;;;;;;4857280;29;20484;-42
2023/10/27 01:03:58;;;;;;;13.90;13.10;;;10.80;99.90;;;;;;4855469;29;20473;-43
2023/10/27 01:06:24;;;;;;;14.07;13.17;;;10.70;99.90;;;;;;4847494;29;20432;-40
2023/10/27 01:08:49;;;;;;;14.00;13.17;;;10.70;99.90;;;;;;4858054;29;20189;-42
2023/10/27 01:11:18;;;;;;;14.20;13.30;;;10.70;99.90;;;;;;4864593;29;20539;-39
2023/10/27 01:13:44;;;;;;;14.17;13.10;;;10.70;99.90;;;;;;4856382;29;20656;-39
2023/10/27 01:16:09;;;;;;;14.60;13.70;;;10.70;99.90;;;;;;4852399;29;20500;-41
2023/10/27 01:18:35;;;;;;;13.70;13.00;;;10.80;99.90;;;;;;4856566;29;20227;-41
2023/10/27 01:21:01;;;;;;;14.47;13.63;;;10.80;99.90;;;;;;4860346;29;20196;-40
2023/10/27 01:23:26;;;;;;;14.67;13.77;;;10.80;99.90;;;;;;4852148;29;20373;-42
2023/10/27 01:25:52;;;;;;;14.40;13.53;;;10.90;99.90;;;;;;4851397;29;20440;-40
2023/10/27 01:28:18;;;;;;;14.47;13.57;;;10.90;99.90;;;;;;4854141;29;20683;-41
2023/10/27 01:30:44;;;;;;;14.23;13.43;;;10.90;99.90;;;;;;4855752;29;20684;-40
2023/10/27 01:33:09;;;;;;;14.43;13.63;;;10.90;99.90;;;;;;4862565;29;20208;-43
2023/10/27 01:35:35;;;;;;;14.33;13.53;;;10.90;99.90;;;;;;4849584;29;20188;-40
2023/10/27 01:38:01;;;;;;;14.20;13.40;;;10.80;99.90;;;;;;4854650;29;20193;-40
2023/10/27 01:40:28;;;;;;;14.10;13.20;;;10.80;99.90;;;;;;4854901;29;20199;-41
2023/10/27 01:42:53;;;;;;;14.40;13.60;;;10.90;99.90;;;;;;4862418;29;20891;-40
2023/10/27 01:45:19;;;;;;;14.33;13.53;;;10.90;99.90;;;;;;4861559;29;20611;-44
2023/10/27 01:47:45;;;;;;;13.80;12.97;;;10.90;99.90;;;;;;4840553;29;20241;-40
2023/10/27 01:50:10;;;;;;;13.63;12.93;;;10.90;99.90;;;;;;4857082;29;20195;-42
2023/10/27 01:52:36;;;;;;;14.40;13.50;;;10.90;99.90;;;;;;4852042;29;20291;-43
2023/10/27 01:55:02;;;;;;;14.40;13.50;;;10.90;99.90;;;;;;4862296;29;20290;-43
2023/10/27 01:57:27;;;;;;;14.17;13.27;;;10.90;99.90;;;;;;4855908;29;20671;-41
2023/10/27 01:59:53;;;;;;;13.90;13.10;;;10.90;99.90;;;;;;4859672;29;20189;-41
2023/10/27 02:02:19;;;;;;;14.03;13.23;;;10.90;99.90;;;;;;4852235;29;20200;-42
2023/10/27 02:04:45;;;;;;;13.63;12.80;;;10.90;99.90;;;;;;4863276;29;20215;-49
2023/10/27 02:07:12;;;;;;;13.87;13.07;;;10.90;99.90;;;;;;4858876;29;20779;-40
2023/10/27 02:09:39;;;;;;;14.23;13.23;;;10.90;99.90;;;;;;4860339;29;20286;-41
2023/10/27 02:12:07;;;;;;;14.40;13.60;;;10.90;99.90;;;;;;4853857;29;21004;-40
2023/10/27 02:14:33;;;;;;;13.63;12.83;;;10.90;99.90;;;;;;4864401;29;20455;-41
2023/10/27 02:16:59;;;;;;;13.63;12.90;;;11.00;99.90;;;;;;4853360;29;20468;-41
2023/10/27 02:19:24;;;;;;;13.93;13.13;;;11.00;99.90;;;;;;4847884;29;20433;-41
2023/10/27 02:21:50;;;;;;;13.83;12.97;;;11.00;99.90;;;;;;4855089;29;20185;-41
2023/10/27 02:24:16;;;;;;;14.70;13.80;;;11.00;99.90;;;;;;4853096;29;20718;-42
2023/10/27 02:26:41;;;;;;;14.20;13.40;;;11.00;99.90;;;;;;4863526;29;20188;-41
2023/10/27 02:29:07;;;;;;;13.97;13.07;;;11.00;99.90;;;;;;4867138;29;20240;-42
2023/10/27 02:31:33;;;;;;;14.07;13.27;;;11.00;99.90;;;;;;4858254;29;20288;-41
2023/10/27 02:33:58;;;;;;;13.00;12.30;;;11.00;99.90;;;;;;4853144;29;20712;-42
2023/10/27 02:36:25;;;;;;;13.37;12.60;;;11.00;99.90;;;;;;4852155;29;20185;-40
2023/10/27 02:38:50;;;;;;;14.30;13.50;;;11.00;99.90;;;;;;4859011;29;20198;-41
2023/10/27 02:41:16;;;;;;;13.77;12.97;;;11.00;99.90;;;;;;4853747;29;20421;-46
2023/10/27 02:43:42;;;;;;;13.83;12.93;;;10.90;99.90;;;;;;4855599;29;20192;-41
2023/10/27 02:46:12;;;;;;;14.37;13.50;;;10.90;99.90;;;;;;4854852;29;20280;-42
2023/10/27 02:48:38;;;;;;;13.97;13.17;;;10.90;99.90;;;;;;4867836;29;20671;-42
2023/10/27 02:51:04;;;;;;;13.37;12.60;;;10.90;99.90;;;;;;4860449;29;20425;-43
2023/10/27 02:53:29;;;;;;;13.90;13.07;;;10.90;99.90;;;;;;4855453;29;20963;-41
2023/10/27 02:55:56;;;;;;;14.70;13.90;;;10.90;99.90;;;;;;4852197;29;20356;-43
2023/10/27 02:58:22;;;;;;;14.67;13.67;;;10.90;99.90;;;;;;4863263;29;20449;-40
2023/10/27 03:00:47;;;;;;;13.90;13.10;;;10.90;99.90;;;;;;4853268;29;20469;-39
2023/10/27 03:03:14;;;;;;;14.40;13.50;;;11.00;99.90;;;;;;4858952;29;20244;-43
2023/10/27 03:05:40;;;;;;;14.20;13.30;;;10.90;99.90;;;;;;4855204;29;20725;-40
2023/10/27 03:08:05;;;;;;;14.30;13.40;;;10.90;99.90;;;;;;4864882;29;20538;-47
2023/10/27 03:10:31;;;;;;;15.30;14.30;;;10.90;99.90;;;;;;4867581;29;20187;-41
2023/10/27 03:12:57;;;;;;;15.40;14.40;;;10.90;99.90;;;;;;4860537;29;20200;-44
2023/10/27 03:15:23;;;;;;;14.20;13.30;;;10.90;99.90;;;;;;4854585;29;20830;-41
2023/10/27 03:17:48;;;;;;;15.17;14.23;;;10.90;99.90;;;;;;4855458;29;20188;-41
2023/10/27 03:20:14;;;;;;;15.40;14.40;;;10.90;99.90;;;;;;4866204;29;20184;-40
2023/10/27 03:22:40;;;;;;;14.70;13.53;;;10.90;99.90;;;;;;4854596;29;20449;-40
2023/10/27 03:25:06;;;;;;;15.00;14.00;;;10.90;99.90;;;;;;4851471;29;20276;-41
2023/10/27 03:27:32;;;;;;;14.60;13.60;;;10.90;99.90;;;;;;4858792;29;20425;-39
2023/10/27 03:29:58;;;;;;;14.03;13.23;;;11.00;99.90;;;;;;4867769;29;20859;-40
2023/10/27 03:32:24;;;;;;;15.00;13.90;;;11.00;99.90;;;;;;4855251;29;20663;-40
2023/10/27 03:34:49;;;;;;;14.37;13.47;;;11.00;99.90;;;;;;4850275;29;20201;-41
2023/10/27 03:37:15;;;;;;;13.90;12.90;;;11.00;99.90;;;;;;4863199;29;20670;-47
2023/10/27 03:39:42;;;;;;;13.80;13.00;;;11.00;99.90;;;;;;4857456;29;20189;-41
2023/10/27 03:42:08;;;;;;;14.30;13.47;;;11.00;99.90;;;;;;4859163;29;20610;-40
2023/10/27 03:44:36;;;;;;;14.10;13.10;;;11.00;99.90;;;;;;4859802;29;20603;-41
2023/10/27 03:47:01;;;;;;;14.00;13.00;;;11.00;99.90;;;;;;4851543;29;20181;-41
2023/10/27 03:49:29;;;;;;;14.60;13.70;;;11.10;99.90;;;;;;4857611;29;20449;-45
2023/10/27 03:51:56;;;;;;;15.47;14.37;;;11.10;99.90;;;;;;4845810;29;20185;-44
2023/10/27 03:54:21;;;;;;;14.10;13.30;;;11.10;99.90;;;;;;4854244;29;20445;-40
2023/10/27 03:56:48;;;;;;;14.43;13.50;;;11.10;99.90;;;;;;4861166;29;20471;-40
2023/10/27 03:59:13;;;;;;;14.57;13.67;;;11.10;99.90;;;;;;4851597;29;20451;-40
2023/10/27 04:01:40;;;;;;;14.50;13.50;;;11.10;99.90;;;;;;4865506;29;20923;-39
2023/10/27 04:04:05;;;;;;;15.23;14.13;;;11.10;99.90;;;;;;4852328;29;20309;-42
2023/10/27 04:06:31;;;;;;;13.90;13.00;;;11.10;99.90;;;;;;4860896;29;20441;-41
2023/10/27 04:08:56;;;;;;;14.37;13.37;;;11.10;99.90;;;;;;4850944;29;20189;-43
2023/10/27 04:11:22;;;;;;;14.33;13.43;;;11.20;99.90;;;;;;4866838;29;20272;-43
2023/10/27 04:13:48;;;;;;;13.50;12.70;;;11.20;99.90;;;;;;4854778;29;20627;-40
2023/10/27 04:16:13;;;;;;;14.70;13.70;;;11.20;99.90;;;;;;4858814;29;20315;-41
2023/10/27 04:18:39;;;;;;;14.10;13.20;;;11.20;99.90;;;;;;4854205;29;20199;-39
2023/10/27 04:21:05;;;;;;;14.37;13.37;;;11.20;99.90;;;;;;4858564;29;20192;-42
2023/10/27 04:23:31;;;;;;;14.30;13.30;;;11.30;99.90;;;;;;4854536;29;20267;-42
2023/10/27 04:25:57;;;;;;;14.13;13.33;;;11.30;99.90;;;;;;4856049;29;20448;-40
2023/10/27 04:28:22;;;;;;;14.67;13.77;;;11.30;99.90;;;;;;4850039;29;20426;-41
2023/10/27 04:30:48;;;;;;;14.43;13.60;;;11.30;99.90;;;;;;4864840;29;20207;-44
2023/10/27 04:33:15;;;;;;;16.27;15.17;;;11.30;99.90;;;;;;4853444;29;20189;-41
2023/10/27 04:35:42;;;;;;;15.40;14.40;;;11.30;99.90;;;;;;4866550;29;20199;-42
2023/10/27 04:38:07;;;;;;;14.97;13.90;;;11.20;99.90;;;;;;4859247;29;21296;-42
2023/10/27 04:40:34;;;;;;;15.03;14.00;;;11.20;99.90;;;;;;4864478;29;20428;-41
2023/10/27 04:43:00;;;;;;;14.90;13.90;;;11.20;99.90;;;;;;4860593;29;20184;-41
2023/10/27 04:45:26;;;;;;;15.03;14.03;;;11.10;99.90;;;;;;4860443;29;21280;-44
2023/10/27 04:47:52;;;;;;;14.40;13.30;;;11.00;99.90;;;;;;4858300;29;21220;-42
2023/10/27 04:50:18;;;;;;;14.87;13.87;;;11.00;99.90;;;;;;4864267;29;20789;-42
2023/10/27 04:52:45;;;;;;;16.10;15.00;;;11.00;99.90;;;;;;4863757;29;20424;-42
2023/10/27 04:55:11;;;;;;;17.37;15.97;;;11.10;99.90;;;;;;4863978;29;20552;-42
2023/10/27 04:57:37;;;;;;;17.47;15.97;;;11.00;99.90;;;;;;4865815;29;20492;-43
2023/10/27 05:00:05;;;;;;;17.80;16.40;;;11.10;99.90;;;;;;4863149;29;20732;-40
2023/10/27 05:02:31;;;;;;;16.37;15.27;;;11.10;99.90;;;;;;4857981;29;20223;-41
2023/10/27 05:04:56;;;;;;;17.30;16.00;;;11.20;99.90;;;;;;4864498;29;20559;-40
2023/10/27 05:07:22;;;;;;;17.60;16.23;;;11.20;99.90;;;;;;4866305;29;20429;-40
2023/10/27 05:09:49;;;;;;;18.10;16.50;;;11.20;99.90;;;;;;4865810;29;20284;-41
2023/10/27 05:12:15;;;;;;;16.77;15.37;;;11.30;99.90;;;;;;4865906;29;20318;-40
2023/10/27 05:14:41;;;;;;;17.93;16.23;;;11.30;99.90;;;;;;4854822;29;21026;-40
2023/10/27 05:17:07;;;;;;;17.33;16.03;;;11.30;99.90;;;;;;4856994;29;20807;-43
2023/10/27 05:19:34;;;;;;;18.60;16.97;;;11.40;99.90;;;;;;4838636;29;20297;-44
2023/10/27 05:22:02;;;;;;;18.70;17.10;;;11.40;99.90;;;;;;4858197;29;20627;-42
2023/10/27 05:24:27;;;;;;;18.93;17.40;;;11.50;99.90;;;;;;4854769;29;20483;-42
2023/10/27 05:26:53;;;;;;;17.53;16.03;;;11.50;99.90;;;;;;4866238;29;20706;-40
2023/10/27 05:29:19;;;;;;;17.90;16.50;;;11.50;99.90;;;;;;4862094;29;21107;-42
2023/10/27 05:31:46;;;;;;;18.00;16.63;;;11.50;99.90;;;;;;4865488;29;20251;-41
2023/10/27 05:34:12;;;;;;;18.57;17.03;;;11.50;99.90;;;;;;4854672;29;20523;-41
2023/10/27 05:36:38;;;;;;;18.60;17.20;;;11.60;99.90;;;;;;4865649;29;20463;-40
2023/10/27 05:39:03;;;;;;;19.00;17.50;;;11.60;99.90;;;;;;4865379;29;20315;-44
2023/10/27 05:41:29;;;;;;;19.37;17.77;;;11.60;99.90;;;;;;4849616;29;20232;-40
2023/10/27 05:43:55;;;;;;;19.00;17.50;;;11.60;99.90;;;;;;4865878;29;20218;-42
2023/10/27 05:46:21;;;;;;;18.47;16.83;;;11.60;99.90;;;;;;4847020;29;20196;-40
2023/10/27 05:48:47;;;;;;;18.87;17.30;;;11.60;99.90;;;;;;4861312;29;20598;-40
2023/10/27 05:51:12;;;;;;;19.63;18.03;;;11.60;99.90;;;;;;4859227;29;20420;-42
2023/10/27 05:53:38;;;;;;;18.60;16.97;;;11.60;99.90;;;;;;4863440;29;20599;-42
2023/10/27 05:56:04;;;;;;;19.33;17.83;;;11.60;99.90;;;;;;4859455;29;20184;-43
2023/10/27 05:58:35;;;;;;;18.33;16.93;;;11.60;99.90;;;;;;4848766;29;20187;-40
2023/10/27 06:01:01;;;;;;;19.63;18.03;;;11.60;99.90;;;;;;4865814;29;20499;-42
2023/10/27 06:03:27;;;;;;;19.07;17.57;;;11.60;99.90;;;;;;4866394;29;20844;-41
2023/10/27 06:05:52;;;;;;;18.87;17.40;;;11.70;99.90;;;;;;4853464;29;20579;-42
2023/10/27 06:08:19;;;;;;;17.80;16.40;;;11.70;99.90;;;;;;4853450;29;20671;-44
2023/10/27 06:10:45;;;;;;;17.13;15.83;;;11.70;99.90;;;;;;4854561;29;20195;-40
2023/10/27 06:13:12;;;;;;;18.83;17.23;;;11.70;99.90;;;;;;4852230;29;20817;-41
2023/10/27 06:15:37;;;;;;;19.27;17.30;;;11.70;99.90;;;;;;4854333;29;20582;-42
2023/10/27 06:18:04;;;;;;;19.70;17.90;;;11.70;99.90;;;;;;4856753;29;20433;-41
2023/10/27 06:20:29;;;;;;;17.93;16.53;;;11.70;99.90;;;;;;4835523;29;20440;-42
2023/10/27 06:22:55;;;;;;;17.50;16.10;;;11.70;99.90;;;;;;4854009;29;20421;-42
2023/10/27 06:25:25;;;;;;;17.70;16.30;;;11.80;99.90;;;;;;4853331;29;20207;-40
2023/10/27 06:27:51;;;;;;;16.37;15.07;;;11.80;99.90;;;;;;4841216;29;20582;-40
2023/10/27 06:30:18;;;;;;;17.07;15.57;;;11.80;99.90;;;;;;4860191;29;20432;-42
2023/10/27 06:32:43;;;;;;;19.13;17.40;;;11.80;99.90;;;;;;4853418;29;20820;-41
2023/10/27 06:35:09;;;;;;;18.00;16.70;;;11.80;99.90;;;;;;4854425;29;20437;-42
2023/10/27 06:37:35;;;;;;;17.07;15.77;;;11.70;99.90;;;;;;4854385;29;20324;-41
2023/10/27 06:40:01;;;;;;;18.10;16.60;;;11.70;99.90;;;;;;4853918;29;20200;-41
2023/10/27 06:42:26;;;;;;;19.10;17.53;;;11.80;99.90;;;;;;4854105;29;20679;-41
2023/10/27 06:44:52;;;;;;;18.97;17.07;;;11.80;99.90;;;;;;4855691;29;20471;-41
2023/10/27 06:47:18;;;;;;;18.00;16.40;;;11.80;99.90;;;;;;4853995;29;20180;-43
2023/10/27 06:49:44;;;;;;;17.63;16.23;;;11.80;99.90;;;;;;4850439;29;20176;-42
2023/10/27 06:52:10;;;;;;;20.00;18.13;;;11.80;99.90;;;;;;4851628;29;20460;-43
2023/10/27 06:54:36;;;;;;;17.77;16.37;;;11.80;99.90;;;;;;4852896;29;20792;-41
2023/10/27 06:57:02;;;;;;;16.90;15.63;;;11.80;99.90;;;;;;4852685;29;20592;-43
2023/10/27 06:59:30;;;;;;;16.43;15.10;;;11.80;99.90;;;;;;4854930;29;20192;-42
2023/10/27 07:01:56;;;;;;;15.53;14.43;;;11.80;99.90;;;;;;4852953;29;20220;-41
2023/10/27 07:04:22;;;;;;;16.43;15.20;;;11.80;99.90;;;;;;4853352;29;20564;-41
2023/10/27 07:06:47;;;;;;;17.40;16.07;;;11.80;99.90;;;;;;4852034;29;20264;-42
2023/10/27 07:09:13;;;;;;;16.57;15.30;;;11.80;99.90;;;;;;4853151;29;20519;-41
2023/10/27 07:11:38;;;;;;;16.27;15.10;;;11.80;99.90;;;;;;4853319;29;20228;-42
2023/10/27 07:14:04;;;;;;;16.00;14.90;;;11.80;99.90;;;;;;4856294;29;20223;-44
2023/10/27 07:16:30;;;;;;;18.83;17.10;;;11.80;99.90;;;;;;4851725;29;20203;-42
2023/10/27 07:18:56;;;;;;;16.33;15.13;;;11.70;99.90;;;;;;4836153;29;20430;-43
2023/10/27 07:21:22;;;;;;;16.67;15.27;;;11.80;99.90;;;;;;4852264;29;20872;-47
2023/10/27 07:23:47;;;;;;;17.27;15.97;;;11.70;99.90;;;;;;4852680;29;20907;-44
2023/10/27 07:26:14;;;;;;;18.00;16.67;;;11.70;99.90;;;;;;4857038;29;20788;-44
2023/10/27 07:28:40;;;;;;;18.07;16.40;;;11.70;99.90;;;;;;4855565;29;20185;-41
2023/10/27 07:31:08;;;;;;;18.13;16.70;;;11.70;99.90;;;;;;4837568;29;20425;-43
2023/10/27 07:33:34;;;;;;;19.20;17.70;;;11.70;99.90;;;;;;4852500;29;20429;-44
2023/10/27 07:36:02;;;;;;;19.37;17.70;;;11.70;99.90;;;;;;4854489;29;21379;-46
2023/10/27 07:38:27;;;;;;;18.77;17.30;;;11.80;99.90;;;;;;4851096;29;20196;-42
2023/10/27 07:40:57;;;;;;;19.70;18.10;;;11.80;99.90;;;;;;4851253;29;20468;-47
2023/10/27 07:43:23;;;;;;;20.20;18.53;;;11.80;99.90;;;;;;4859680;29;20192;-43
2023/10/27 07:45:49;;;;;;;19.17;17.37;;;11.80;99.90;;;;;;4855073;29;20493;-42
2023/10/27 07:48:14;;;;;;;19.20;17.60;;;11.80;99.90;;;;;;4852444;29;20463;-42
2023/10/27 07:50:40;;;;;;;18.83;17.20;;;11.80;99.90;;;;;;4852828;29;20201;-42
2023/10/27 07:53:06;;;;;;;17.87;16.47;;;11.80;99.90;;;;;;4853055;29;20192;-44
2023/10/27 07:55:32;;;;;;;17.77;16.20;;;11.90;99.90;;;;;;4865811;29;20208;-42
2023/10/27 07:57:58;;;;;;;18.60;17.07;;;11.90;99.90;;;;;;4862504;29;20455;-41
2023/10/27 08:00:23;;;;;;;19.10;17.40;;;12.00;99.90;;;;;;4867665;29;21010;-44
2023/10/27 08:02:53;;;;;;;18.77;17.33;;;12.10;99.90;;;;;;4861496;29;20522;-44
2023/10/27 08:05:19;;;;;;;19.37;17.70;;;12.10;99.90;;;;;;4866254;29;20220;-41
2023/10/27 08:07:46;;;;;;;20.10;18.40;;;12.20;99.90;;;;;;4857146;29;20795;-43
2023/10/27 08:10:11;;;;;;;19.13;17.60;;;12.20;99.90;;;;;;4853854;29;20196;-42
2023/10/27 08:12:37;;;;;;;21.30;19.40;;;12.30;99.90;;;;;;4860289;29;20483;-40
2023/10/27 08:15:07;;;;;;;20.83;19.00;;;12.30;99.90;;;;;;4859111;29;20211;-42
2023/10/27 08:17:36;;;;;;;21.40;19.57;;;12.40;99.90;;;;;;4861081;29;20727;-42
2023/10/27 08:20:03;;;;;;;22.20;20.10;;;12.40;99.90;;;;;;4868044;29;21049;-41
2023/10/27 08:22:29;;;;;;;22.87;20.87;;;12.40;99.90;;;;;;4851545;29;20626;-42
2023/10/27 08:24:55;;;;;;;21.67;19.87;;;12.30;99.90;;;;;;4853088;29;20872;-43
2023/10/27 08:27:22;;;;;;;22.17;20.17;;;12.30;99.90;;;;;;4834134;29;20481;-42
2023/10/27 08:29:48;;;;;;;21.77;19.70;;;12.40;99.90;;;;;;4867748;29;20176;-41
2023/10/27 08:32:14;;;;;;;21.63;19.77;;;12.50;99.90;;;;;;4862128;29;20507;-41
2023/10/27 08:34:39;;;;;;;20.83;19.13;;;12.50;99.90;;;;;;4858699;29;20640;-42
2023/10/27 08:37:06;;;;;;;22.40;20.40;;;12.40;99.90;;;;;;4841355;29;20440;-42
2023/10/27 08:39:34;;;;;;;20.60;18.70;;;12.40;99.90;;;;;;4863258;29;20207;-41
2023/10/27 08:42:03;;;;;;;19.97;18.27;;;12.40;99.90;;;;;;4864690;29;20992;-42
2023/10/27 08:44:29;;;;;;;20.97;19.07;;;12.40;99.90;;;;;;4866735;29;20979;-42
2023/10/27 08:46:57;;;;;;;20.67;18.83;;;12.40;99.90;;;;;;4855065;29;20453;-41
2023/10/27 08:49:22;;;;;;;20.20;18.57;;;12.50;99.90;;;;;;4840647;29;20494;-41
2023/10/27 08:51:48;;;;;;;22.33;20.50;;;12.50;99.90;;;;;;4864781;29;20511;-41
2023/10/27 08:54:14;;;;;;;20.57;18.87;;;12.40;99.90;;;;;;4866453;29;20188;-43
2023/10/27 08:56:40;;;;;;;20.97;19.27;;;12.40;99.90;;;;;;4863188;29;20199;-41
2023/10/27 08:59:10;;;;;;;21.17;19.40;;;12.30;99.90;;;;;;4858458;29;20638;-41
2023/10/27 09:01:36;;;;;;;22.40;20.30;;;12.20;99.90;;;;;;4862331;29;20804;-47
2023/10/27 09:04:11;;;;;;;21.30;19.50;;;12.20;99.90;;;;;;4849248;29;20433;-43
2023/10/27 09:06:38;;;;;;;21.97;20.03;;;12.20;99.90;;;;;;4847822;29;20429;-40
2023/10/27 09:09:09;;;;;;;21.30;19.33;;;12.20;99.90;;;;;;4848304;29;20605;-42
2023/10/27 09:11:47;;;;;;;20.30;18.40;;;12.20;99.90;;;;;;4854550;29;20500;-41
2023/10/27 09:14:32;;;;;;;20.53;18.93;;;12.30;99.90;;;;;;4848322;29;20466;-42
2023/10/27 09:17:11;;;;;;;21.20;19.30;;;12.20;99.90;;;;;;4849190;29;20455;-45
2023/10/27 09:19:37;;;;;;;20.33;18.53;;;12.20;99.90;;;;;;4866455;29;20439;-42
2023/10/27 09:22:17;;;;;;;20.93;19.07;;;12.20;99.90;;;;;;4860646;29;20457;-42
2023/10/27 09:24:43;;;;;;;20.80;18.97;;;12.20;99.90;;;;;;4865872;29;20528;-41
2023/10/27 09:27:09;;;;;;;20.80;19.10;;;12.20;99.90;;;;;;4860430;29;21045;-44
2023/10/27 09:29:43;;;;;;;20.23;18.43;;;12.20;99.90;;;;;;4849608;29;20193;-44
2023/10/27 09:32:25;;;;;;;19.80;18.20;;;12.30;99.90;;;;;;4853291;29;20195;-40
2023/10/27 09:35:08;;;;;;;20.57;18.83;;;12.30;99.90;;;;;;4849773;29;20433;-44
2023/10/27 09:37:37;;;;;;;20.00;18.40;;;12.30;99.90;;;;;;4850544;29;21341;-41
2023/10/27 09:40:09;;;;;;;19.10;17.60;;;12.30;99.90;;;;;;4850412;29;20532;-41
2023/10/27 09:42:37;;;;;;;20.13;18.37;;;12.40;99.90;;;;;;4861950;29;20444;-44
2023/10/27 09:45:11;;;;;;;19.93;18.23;;;12.40;99.90;;;;;;4846253;29;21641;-42
2023/10/27 09:47:47;;;;;;;20.27;18.53;;;12.50;99.90;;;;;;4857193;29;20432;-44
2023/10/27 09:50:15;;;;;;;21.47;19.37;;;12.50;99.90;;;;;;4864722;29;20484;-43
2023/10/27 09:52:44;;;;;;;21.30;19.50;;;12.40;99.90;;;;;;4854002;29;20448;-42
2023/10/27 09:55:18;;;;;;;20.90;19.00;;;12.40;99.90;;;;;;4865084;29;20499;-42
2023/10/27 09:57:45;;;;;;;21.03;19.07;;;12.30;99.90;;;;;;4849286;29;20440;-41
2023/10/27 10:00:13;;;;;;;19.93;18.43;;;12.30;99.90;;;;;;4852999;29;20432;-41
2023/10/27 10:02:44;;;;;;;21.50;19.70;;;12.30;99.90;;;;;;4856628;29;20437;-42
2023/10/27 10:05:11;;;;;;;21.43;19.50;;;12.40;99.90;;;;;;4865039;29;20543;-42
2023/10/27 10:07:44;;;;;;;21.00;19.20;;;12.40;99.90;;;;;;4848924;29;20437;-46
2023/10/27 10:10:17;;;;;;;21.90;20.20;;;12.50;99.90;;;;;;4858303;29;20471;-44
2023/10/27 10:13:05;;;;;;;21.20;19.50;;;12.50;99.90;;;;;;4840184;29;20491;-42
2023/10/27 10:15:35;;;;;;;20.17;18.47;;;12.50;99.90;;;;;;4852318;29;20490;-43
2023/10/27 10:18:03;;;;;;;20.80;18.90;;;12.60;99.90;;;;;;4850506;29;20448;-43
2023/10/27 10:20:52;;;;;;;20.77;19.00;;;12.60;99.90;;;;;;4865359;29;20930;-43
2023/10/27 10:23:19;;;;;;;21.33;19.53;;;12.60;99.90;;;;;;4853862;29;20436;-43
2023/10/27 10:25:51;;;;;;;20.53;18.80;;;12.50;99.90;;;;;;4858127;29;20575;-41
2023/10/27 10:28:17;;;;;;;20.50;18.70;;;12.40;99.90;;;;;;4848792;29;20770;-44
2023/10/27 10:30:44;;;;;;;21.83;20.00;;;12.50;99.90;;;;;;4864236;29;20444;-42
2023/10/27 10:33:28;;;;;;;20.87;19.17;;;12.50;99.90;;;;;;4863883;29;20196;-47
2023/10/27 10:36:23;;;;;;;21.00;19.30;;;12.40;99.90;;;;;;4855051;29;20440;-42
2023/10/27 10:38:59;;;;;;;21.83;19.57;;;12.50;99.90;;;;;;4854421;29;20455;-41
2023/10/27 10:41:53;;;;;;;21.17;19.30;;;12.50;99.90;;;;;;4848237;29;20437;-41
2023/10/27 10:44:19;;;;;;;22.27;20.40;;;12.60;99.90;;;;;;4847633;29;20472;-44
2023/10/27 10:46:46;;;;;;;23.67;21.50;;;12.60;99.90;;;;;;4850534;29;20482;-45
2023/10/27 10:49:25;;;;;;;23.40;21.40;;;12.70;99.90;;;;;;4854929;29;20447;-44
2023/10/27 10:51:58;;;;;;;21.87;19.87;;;12.60;99.90;;;;;;4869221;29;20425;-47
2023/10/27 10:54:33;;;;;;;22.40;20.53;;;12.60;99.90;;;;;;4852197;29;20429;-39
2023/10/27 10:57:00;;;;;;;22.40;20.50;;;12.60;99.90;;;;;;4866675;29;20833;-41
2023/10/27 10:59:25;;;;;;;22.30;20.50;;;12.60;99.90;;;;;;4853178;29;20437;-43
2023/10/27 11:01:56;;;;;;;23.03;21.13;;;12.70;99.90;;;;;;4850314;29;21203;-42
2023/10/27 11:04:28;;;;;;;22.33;20.23;;;12.80;99.90;;;;;;4851704;29;20920;-44
2023/10/27 11:06:58;;;;;;;21.13;19.40;;;12.80;99.90;;;;;;4844228;29;20444;-44
2023/10/27 11:09:24;;;;;;;23.00;21.00;;;12.80;99.90;;;;;;4844649;29;20429;-42
2023/10/27 11:11:49;;;;;;;21.90;20.00;;;12.90;99.90;;;;;;4856813;29;20468;-42
2023/10/27 11:14:15;;;;;;;21.23;19.53;;;12.90;99.90;;;;;;4852622;29;20544;-44
2023/10/27 11:16:41;;;;;;;21.20;19.43;;;12.90;99.90;;;;;;4838792;29;20204;-42
2023/10/27 11:19:16;;;;;;;22.40;20.50;;;13.00;99.90;;;;;;4853663;29;20204;-42
2023/10/27 11:21:41;;;;;;;22.20;20.30;;;13.00;99.90;;;;;;4854462;29;20463;-41
2023/10/27 11:24:07;;;;;;;21.57;19.77;;;13.10;99.90;;;;;;4856786;29;20465;-44
2023/10/27 11:26:41;;;;;;;21.23;19.33;;;13.10;99.90;;;;;;4856865;29;20287;-44
2023/10/27 11:29:08;;;;;;;21.43;19.63;;;13.10;99.90;;;;;;4856036;29;21011;-41
2023/10/27 11:31:39;;;;;;;20.00;18.50;;;13.20;99.90;;;;;;4853439;29;20449;-47
2023/10/27 11:34:09;;;;;;;19.17;17.70;;;13.10;99.90;;;;;;4860186;29;20940;-41
2023/10/27 11:36:40;;;;;;;20.63;19.07;;;13.10;99.90;;;;;;4855638;29;20445;-40
2023/10/27 11:39:15;;;;;;;19.50;17.90;;;13.10;99.90;;;;;;4851021;29;20527;-41
2023/10/27 11:41:47;;;;;;;19.80;18.40;;;13.00;99.90;;;;;;4855194;29;20433;-41
2023/10/27 11:44:13;;;;;;;19.00;17.50;;;12.90;99.90;;;;;;4841222;29;20461;-42
2023/10/27 11:46:45;;;;;;;19.40;17.90;;;12.80;99.90;;;;;;4853962;29;21156;-44
2023/10/27 11:49:11;;;;;;;19.00;17.40;;;12.80;99.90;;;;;;4858873;29;20242;-39
2023/10/27 11:51:37;;;;;;;19.17;17.70;;;12.90;99.90;;;;;;4862857;29;20532;-42
2023/10/27 11:54:02;;;;;;;18.00;16.80;;;12.80;99.90;;;;;;4861102;29;20472;-42
2023/10/27 11:56:28;;;;;;;17.70;16.33;;;12.80;99.90;;;;;;4851737;29;20196;-42
2023/10/27 11:58:54;;;;;;;18.40;17.10;;;12.80;99.90;;;;;;4852414;29;20203;-42
2023/10/27 12:01:19;;;;;;;17.57;16.43;;;12.70;99.90;;;;;;4860861;29;20199;-43
2023/10/27 12:03:45;;;;;;;15.90;14.90;;;12.60;99.90;;;;;;4860012;29;20249;-42
2023/10/27 12:06:11;;;;;;;14.53;13.70;;;12.50;99.90;;;;;;4857994;29;20698;-46
2023/10/27 12:08:36;;;;;;;13.97;13.27;;;12.40;99.90;;;;;;4855958;29;20472;-42
2023/10/27 12:11:03;;;;;;;14.10;13.40;;;12.40;99.90;;;;;;4853242;29;20238;-40
2023/10/27 12:13:28;;;;;;;12.63;12.07;;;12.20;99.90;;;;;;4856698;29;20199;-42
2023/10/27 12:15:54;;;;;;;13.90;13.20;;;12.20;99.90;;;;;;4856808;29;20452;-41
2023/10/27 12:18:20;;;;;;;15.53;14.73;;;12.10;99.90;;;;;;4852535;29;20605;-43
2023/10/27 12:20:46;;;;;;;13.30;12.60;;;12.10;99.90;;;;;;4858940;29;20214;-44
2023/10/27 12:23:11;;;;;;;13.53;12.93;;;12.10;99.90;;;;;;4850902;29;20612;-43
2023/10/27 12:25:38;;;;;;;13.50;12.80;;;12.00;99.90;;;;;;4851517;29;20483;-43
2023/10/27 12:28:04;;;;;;;13.13;12.53;;;12.00;99.90;;;;;;4850660;29;20280;-50